createdAt,value
2017-07-30T00:00:49.498Z,77.70
2017-07-30T00:03:17.568Z,76.80
2017-07-30T00:05:46.406Z,76.20
2017-07-30T00:08:14.479Z,76.00
2017-07-30T00:10:42.535Z,76.40
2017-07-30T00:13:10.724Z,76.50
2017-07-30T00:15:38.791Z,77.40
2017-07-30T00:18:06.844Z,77.40
2017-07-30T00:20:34.910Z,77.70
2017-07-30T00:23:02.978Z,77.50
2017-07-30T00:25:31.051Z,77.80
2017-07-30T00:27:59.132Z,77.40
2017-07-30T00:30:27.194Z,77.70
2017-07-30T00:32:55.259Z,77.10
2017-07-30T00:35:23.322Z,76.90
2017-07-30T00:37:51.406Z,76.90
2017-07-30T00:40:19.486Z,76.50
2017-07-30T00:42:47.533Z,76.50
2017-07-30T00:45:15.589Z,76.30
2017-07-30T00:47:43.655Z,76.40
2017-07-30T00:50:12.474Z,75.90
2017-07-30T00:52:40.547Z,75.90
2017-07-30T00:55:08.599Z,75.50
2017-07-30T00:57:36.640Z,75.20
2017-07-30T01:00:04.734Z,75.90
2017-07-30T01:02:32.783Z,75.60
2017-07-30T01:05:00.863Z,75.60
2017-07-30T01:07:28.936Z,76.00
2017-07-30T01:09:56.990Z,75.70
2017-07-30T01:12:25.071Z,75.10
2017-07-30T01:14:53.134Z,75.30
2017-07-30T01:17:21.187Z,75.50
2017-07-30T01:19:50.026Z,75.20
2017-07-30T01:22:18.090Z,75.10
2017-07-30T01:24:46.202Z,75.00
2017-07-30T01:27:14.267Z,74.70
2017-07-30T01:29:42.322Z,75.00
2017-07-30T01:32:10.378Z,75.20
2017-07-30T01:34:38.436Z,74.80
2017-07-30T01:37:06.510Z,74.50
2017-07-30T01:39:34.566Z,74.40
2017-07-30T01:42:02.648Z,74.80
2017-07-30T01:44:31.245Z,74.70
2017-07-30T01:46:59.298Z,74.60
2017-07-30T01:49:27.358Z,74.80
2017-07-30T01:51:55.439Z,75.10
2017-07-30T01:54:23.492Z,74.70
2017-07-30T01:56:51.558Z,74.40
2017-07-30T01:59:19.634Z,74.30
2017-07-30T02:01:47.703Z,73.70
2017-07-30T02:04:15.766Z,73.60
2017-07-30T02:06:43.810Z,73.40
2017-07-30T02:09:11.879Z,73.50
2017-07-30T02:11:39.951Z,74.00
2017-07-30T02:14:08.019Z,73.80
2017-07-30T02:16:36.085Z,73.80
2017-07-30T02:19:04.166Z,74.20
2017-07-30T02:21:32.234Z,74.70
2017-07-30T02:24:00.279Z,74.70
2017-07-30T02:26:29.115Z,75.30
2017-07-30T02:28:57.165Z,75.30
2017-07-30T02:31:25.238Z,75.30
2017-07-30T02:33:53.358Z,75.20
2017-07-30T02:36:21.407Z,75.60
2017-07-30T02:38:49.475Z,75.70
2017-07-30T02:41:17.830Z,75.80
2017-07-30T02:43:45.894Z,75.50
2017-07-30T02:46:13.972Z,75.80
2017-07-30T02:48:42.018Z,75.70
2017-07-30T02:51:10.842Z,75.40
2017-07-30T02:53:39.682Z,76.10
2017-07-30T02:56:07.743Z,75.20
2017-07-30T02:58:35.805Z,74.90
2017-07-30T03:01:03.878Z,75.50
2017-07-30T03:03:31.927Z,75.40
2017-07-30T03:06:00.767Z,74.60
2017-07-30T03:08:28.814Z,74.60
2017-07-30T03:10:56.923Z,74.40
2017-07-30T03:13:24.997Z,74.20
2017-07-30T03:15:53.047Z,74.00
2017-07-30T03:18:21.091Z,74.10
2017-07-30T03:20:49.156Z,74.00
2017-07-30T03:23:17.937Z,73.80
2017-07-30T03:25:45.986Z,74.00
2017-07-30T03:28:14.817Z,74.50
2017-07-30T03:30:42.879Z,74.50
2017-07-30T03:33:10.950Z,74.60
2017-07-30T03:35:39.013Z,74.60
2017-07-30T03:38:07.067Z,74.90
2017-07-30T03:40:36.700Z,74.90
2017-07-30T03:43:04.762Z,74.80
2017-07-30T03:45:32.809Z,74.80
2017-07-30T03:48:01.647Z,75.80
2017-07-30T03:50:29.702Z,75.70
2017-07-30T03:52:58.578Z,76.20
2017-07-30T03:55:26.680Z,76.40
2017-07-30T03:57:55.515Z,76.30
2017-07-30T04:00:23.581Z,76.10
2017-07-30T04:02:51.647Z,76.70
2017-07-30T04:05:19.709Z,76.70
2017-07-30T04:07:47.782Z,77.20
2017-07-30T04:10:15.831Z,77.50
2017-07-30T04:12:44.656Z,78.60
2017-07-30T04:15:12.723Z,77.70
2017-07-30T04:17:40.794Z,78.10
2017-07-30T04:20:08.839Z,78.10
2017-07-30T04:22:36.935Z,77.70
2017-07-30T04:25:05.003Z,77.90
2017-07-30T04:27:33.073Z,77.50
2017-07-30T04:30:01.147Z,78.10
2017-07-30T04:32:29.222Z,78.00
2017-07-30T04:34:57.295Z,78.40
2017-07-30T04:37:25.355Z,79.10
2017-07-30T04:39:53.422Z,78.40
2017-07-30T04:42:21.470Z,78.00
2017-07-30T04:44:50.308Z,78.70
2017-07-30T04:47:18.355Z,78.70
2017-07-30T04:49:46.402Z,78.40
2017-07-30T04:52:15.255Z,78.30
2017-07-30T04:54:43.307Z,78.30
2017-07-30T04:57:11.368Z,78.90
2017-07-30T04:59:39.437Z,79.50
2017-07-30T05:02:07.486Z,79.40
2017-07-30T05:04:36.325Z,80.60
2017-07-30T05:07:04.367Z,80.50
2017-07-30T05:09:32.439Z,80.40
2017-07-30T05:12:00.503Z,80.60
2017-07-30T05:14:29.322Z,81.10
2017-07-30T05:16:57.393Z,81.00
2017-07-30T05:19:25.440Z,80.60
2017-07-30T05:21:53.506Z,80.30
2017-07-30T05:24:21.554Z,79.50
2017-07-30T05:26:50.387Z,80.20
2017-07-30T05:29:18.455Z,79.50
2017-07-30T05:31:46.526Z,79.60
2017-07-30T05:34:14.586Z,79.80
2017-07-30T05:36:42.645Z,80.30
2017-07-30T05:39:10.762Z,79.30
2017-07-30T05:41:38.823Z,79.10
2017-07-30T05:44:06.888Z,79.20
2017-07-30T05:46:34.938Z,79.30
2017-07-30T05:49:03.005Z,78.80
2017-07-30T05:51:31.055Z,78.70
2017-07-30T05:53:59.863Z,79.00
2017-07-30T05:56:27.961Z,78.60
2017-07-30T05:58:56.021Z,79.10
2017-07-30T06:01:24.079Z,79.20
2017-07-30T06:03:52.158Z,79.20
2017-07-30T06:06:20.214Z,78.80
2017-07-30T06:08:48.297Z,78.60
2017-07-30T06:11:16.353Z,78.80
2017-07-30T06:13:44.417Z,77.40
2017-07-30T06:16:13.231Z,77.20
2017-07-30T06:18:41.282Z,77.20
2017-07-30T06:21:09.327Z,77.20
2017-07-30T06:23:38.165Z,76.80
2017-07-30T06:26:06.232Z,76.70
2017-07-30T06:28:34.279Z,76.60
2017-07-30T06:31:02.335Z,76.60
2017-07-30T06:33:31.158Z,76.70
2017-07-30T06:35:59.218Z,76.70
2017-07-30T06:38:27.291Z,76.00
2017-07-30T06:40:55.359Z,76.10
2017-07-30T06:43:23.423Z,75.70
2017-07-30T06:45:51.501Z,76.30
2017-07-30T06:48:19.564Z,75.70
2017-07-30T06:50:47.605Z,75.70
2017-07-30T06:53:16.450Z,76.10
2017-07-30T06:55:44.495Z,76.00
2017-07-30T06:58:12.543Z,75.30
2017-07-30T07:00:40.615Z,75.20
2017-07-30T07:03:08.688Z,74.70
2017-07-30T07:05:36.754Z,74.50
2017-07-30T07:08:04.826Z,73.70
2017-07-30T07:10:32.873Z,74.70
2017-07-30T07:13:01.711Z,70.80
2017-07-30T07:15:30.299Z,70.80
2017-07-30T07:17:58.422Z,70.30
2017-07-30T07:20:27.250Z,69.00
2017-07-30T07:22:55.335Z,69.00
2017-07-30T07:25:23.459Z,68.80
2017-07-30T07:27:52.372Z,67.70
2017-07-30T07:30:21.167Z,67.10
2017-07-30T07:32:49.228Z,67.00
2017-07-30T07:35:17.306Z,67.90
2017-07-30T07:37:45.371Z,66.70
2017-07-30T07:40:13.422Z,64.90
2017-07-30T07:42:41.484Z,65.40
2017-07-30T07:45:10.300Z,62.20
2017-07-30T07:47:38.381Z,62.10
2017-07-30T07:50:06.441Z,63.40
2017-07-30T07:52:34.514Z,62.20
2017-07-30T07:55:02.577Z,62.00
2017-07-30T07:57:32.311Z,62.40
2017-07-30T08:00:00.393Z,62.40
2017-07-30T08:02:28.474Z,62.80
2017-07-30T08:04:56.534Z,63.40
2017-07-30T08:07:24.609Z,64.20
2017-07-30T08:09:52.681Z,63.80
2017-07-30T08:12:20.760Z,64.30
2017-07-30T08:14:48.798Z,63.10
2017-07-30T08:17:17.620Z,62.70
2017-07-30T08:19:45.691Z,62.60
2017-07-30T08:22:13.755Z,63.20
2017-07-30T08:24:41.827Z,63.70
2017-07-30T08:27:10.718Z,64.00
2017-07-30T08:29:38.783Z,63.20
2017-07-30T08:32:06.854Z,63.20
2017-07-30T08:34:34.916Z,63.80
2017-07-30T08:37:02.994Z,63.40
2017-07-30T08:39:31.045Z,63.80
2017-07-30T08:41:59.611Z,63.70
2017-07-30T08:44:28.457Z,63.70
2017-07-30T08:46:56.534Z,63.60
2017-07-30T08:49:24.594Z,63.20
2017-07-30T08:51:52.685Z,62.70
2017-07-30T08:54:20.747Z,61.60
2017-07-30T08:56:48.840Z,59.90
2017-07-30T08:59:16.915Z,58.70
2017-07-30T09:01:44.967Z,59.80
2017-07-30T09:04:13.035Z,58.80
2017-07-30T09:06:41.086Z,58.80
2017-07-30T09:09:09.172Z,59.10
2017-07-30T09:11:37.240Z,59.10
2017-07-30T09:14:05.296Z,59.10
2017-07-30T09:16:33.351Z,59.10
2017-07-30T09:19:02.204Z,58.80
2017-07-30T09:21:30.259Z,59.00
2017-07-30T09:23:58.346Z,59.00
2017-07-30T09:26:26.390Z,59.10
2017-07-30T09:28:54.463Z,58.70
2017-07-30T09:31:22.532Z,59.40
2017-07-30T09:33:50.603Z,58.50
2017-07-30T09:36:18.668Z,57.20
2017-07-30T09:38:46.721Z,53.40
2017-07-30T09:41:15.563Z,51.20
2017-07-30T09:43:43.632Z,51.10
2017-07-30T09:46:11.699Z,50.60
2017-07-30T09:48:39.774Z,49.50
2017-07-30T09:51:07.880Z,48.60
2017-07-30T09:53:35.937Z,47.90
2017-07-30T09:56:04.007Z,45.70
2017-07-30T09:58:32.052Z,45.40
2017-07-30T10:01:00.114Z,43.90
2017-07-30T10:03:28.935Z,46.70
2017-07-30T10:05:57.007Z,46.70
2017-07-30T10:08:25.092Z,49.50
2017-07-30T10:10:53.151Z,51.30
2017-07-30T10:13:21.238Z,52.60
2017-07-30T10:15:49.327Z,53.90
2017-07-30T10:18:17.434Z,53.60
2017-07-30T10:20:45.479Z,53.40
2017-07-30T10:23:13.559Z,53.40
2017-07-30T10:25:41.696Z,53.50
2017-07-30T10:28:09.848Z,54.00
2017-07-30T10:30:38.682Z,49.70
2017-07-30T10:33:06.751Z,49.70
2017-07-30T10:35:34.827Z,50.40
2017-07-30T10:38:02.887Z,51.10
2017-07-30T10:40:30.966Z,52.90
2017-07-30T10:42:59.023Z,53.10
2017-07-30T10:45:28.390Z,50.80
2017-07-30T10:47:57.207Z,44.20
2017-07-30T10:50:25.263Z,44.10
2017-07-30T10:52:53.339Z,38.50
2017-07-30T10:55:21.407Z,36.60
2017-07-30T10:57:49.499Z,36.50
2017-07-30T11:00:17.559Z,37.80
2017-07-30T11:02:45.647Z,38.50
2017-07-30T11:05:13.711Z,39.60
2017-07-30T11:07:41.765Z,39.30
2017-07-30T11:10:09.844Z,38.50
2017-07-30T11:12:37.940Z,38.20
2017-07-30T11:15:06.003Z,37.60
2017-07-30T11:17:34.065Z,37.00
2017-07-30T11:20:02.863Z,36.30
2017-07-30T11:22:30.929Z,36.90
2017-07-30T11:24:59.002Z,38.20
2017-07-30T11:27:27.067Z,37.50
2017-07-30T11:29:55.167Z,37.20
2017-07-30T11:32:23.997Z,39.10
2017-07-30T11:34:52.050Z,39.10
2017-07-30T11:37:20.151Z,39.60
2017-07-30T11:39:48.221Z,39.40
2017-07-30T11:42:16.313Z,38.20
2017-07-30T11:44:44.377Z,38.50
2017-07-30T11:47:12.455Z,37.90
2017-07-30T11:49:40.519Z,39.20
2017-07-30T11:52:08.596Z,40.40
2017-07-30T11:54:36.654Z,40.90
2017-07-30T11:57:04.722Z,39.50
2017-07-30T11:59:32.800Z,38.70
2017-07-30T12:02:00.897Z,37.60
2017-07-30T12:04:28.978Z,38.90
2017-07-30T12:06:57.806Z,42.50
2017-07-30T12:09:25.888Z,41.90
2017-07-30T12:11:53.951Z,43.10
2017-07-30T12:14:22.034Z,44.80
2017-07-30T12:16:50.092Z,44.50
2017-07-30T12:19:18.163Z,44.70
2017-07-30T12:21:46.264Z,44.40
2017-07-30T12:24:14.379Z,44.00
2017-07-30T12:26:43.211Z,43.90
2017-07-30T12:29:11.285Z,43.80
2017-07-30T12:31:39.343Z,43.90
2017-07-30T12:34:07.423Z,43.90
2017-07-30T12:36:35.472Z,44.10
2017-07-30T12:39:03.550Z,43.00
2017-07-30T12:41:31.619Z,44.20
2017-07-30T12:43:59.688Z,44.70
2017-07-30T12:46:27.786Z,44.50
2017-07-30T12:48:55.830Z,43.90
2017-07-30T12:51:23.897Z,44.60
2017-07-30T12:53:51.984Z,44.30
2017-07-30T12:56:20.039Z,44.00
2017-07-30T12:58:48.133Z,44.30
2017-07-30T13:01:16.187Z,43.60
2017-07-30T13:03:44.259Z,44.60
2017-07-30T13:06:12.326Z,41.60
2017-07-30T13:08:40.382Z,39.90
2017-07-30T13:11:08.459Z,40.60
2017-07-30T13:13:36.523Z,39.40
2017-07-30T13:16:04.619Z,39.40
2017-07-30T13:18:32.675Z,40.60
2017-07-30T13:21:00.737Z,40.40
2017-07-30T13:23:28.838Z,40.30
2017-07-30T13:25:56.890Z,40.60
2017-07-30T13:28:24.966Z,40.90
2017-07-30T13:30:53.070Z,40.60
2017-07-30T13:33:21.136Z,39.70
2017-07-30T13:35:49.201Z,38.30
2017-07-30T13:38:17.323Z,38.80
2017-07-30T13:40:46.123Z,37.90
2017-07-30T13:43:14.215Z,37.90
2017-07-30T13:45:42.291Z,38.20
2017-07-30T13:48:10.351Z,38.40
2017-07-30T13:50:38.419Z,39.20
2017-07-30T13:53:06.472Z,39.10
2017-07-30T13:55:34.571Z,38.90
2017-07-30T13:58:02.679Z,39.90
2017-07-30T14:00:31.512Z,40.00
2017-07-30T14:02:59.582Z,39.90
2017-07-30T14:05:27.656Z,40.40
2017-07-30T14:07:55.732Z,40.00
2017-07-30T14:10:23.796Z,39.80
2017-07-30T14:12:51.871Z,40.20
2017-07-30T14:15:19.939Z,40.50
2017-07-30T14:17:48.003Z,39.60
2017-07-30T14:20:16.118Z,40.10
2017-07-30T14:22:44.158Z,40.40
2017-07-30T14:25:12.233Z,40.40
2017-07-30T14:27:40.330Z,40.90
2017-07-30T14:30:08.388Z,40.40
2017-07-30T14:32:36.468Z,40.80
2017-07-30T14:35:04.588Z,40.70
2017-07-30T14:37:32.678Z,41.70
2017-07-30T14:40:00.758Z,41.70
2017-07-30T14:42:28.847Z,41.80
2017-07-30T14:44:56.890Z,42.00
2017-07-30T14:47:24.987Z,41.60
2017-07-30T14:49:53.039Z,42.50
2017-07-30T14:52:21.116Z,42.90
2017-07-30T14:54:49.206Z,42.90
2017-07-30T14:57:18.047Z,42.50
2017-07-30T14:59:46.127Z,41.80
2017-07-30T15:02:14.202Z,42.20
2017-07-30T15:04:42.282Z,42.80
2017-07-30T15:07:10.370Z,42.70
2017-07-30T15:09:38.435Z,43.30
2017-07-30T15:12:07.276Z,43.00
2017-07-30T15:14:35.336Z,43.00
2017-07-30T15:17:03.403Z,43.20
2017-07-30T15:19:31.479Z,43.40
2017-07-30T15:21:59.544Z,43.40
2017-07-30T15:24:28.447Z,44.10
2017-07-30T15:26:56.505Z,44.40
2017-07-30T15:29:24.591Z,43.70
2017-07-30T15:31:52.639Z,43.70
2017-07-30T15:34:20.708Z,44.00
2017-07-30T15:36:48.812Z,43.90
2017-07-30T15:39:16.874Z,43.90
2017-07-30T15:41:44.960Z,44.30
2017-07-30T15:44:13.029Z,44.60
2017-07-30T15:46:41.119Z,44.30
2017-07-30T15:49:09.196Z,43.90
2017-07-30T15:51:37.447Z,44.30
2017-07-30T15:54:05.608Z,43.10
2017-07-30T15:56:33.650Z,43.80
2017-07-30T15:59:01.730Z,43.80
2017-07-30T16:01:29.782Z,44.00
2017-07-30T16:03:57.871Z,44.50
2017-07-30T16:06:25.947Z,45.10
2017-07-30T16:08:54.023Z,45.90
2017-07-30T16:11:22.879Z,45.00
2017-07-30T16:13:50.927Z,45.00
2017-07-30T16:16:19.016Z,44.90
2017-07-30T16:18:47.071Z,44.80
2017-07-30T16:21:15.138Z,44.00
2017-07-30T16:23:43.246Z,44.80
2017-07-30T16:26:11.273Z,44.70
2017-07-30T16:28:39.351Z,44.50
2017-07-30T16:31:07.410Z,44.20
2017-07-30T16:33:35.472Z,44.00
2017-07-30T16:36:04.328Z,43.80
2017-07-30T16:38:32.384Z,43.80
2017-07-30T16:41:00.473Z,43.80
2017-07-30T16:43:28.548Z,44.10
2017-07-30T16:45:56.618Z,44.10
2017-07-30T16:48:24.682Z,44.40
2017-07-30T16:50:52.738Z,44.60
2017-07-30T16:53:20.814Z,44.80
2017-07-30T16:55:48.885Z,44.90
2017-07-30T16:58:16.948Z,45.20
2017-07-30T17:00:45.030Z,48.70
2017-07-30T17:03:13.098Z,50.00
2017-07-30T17:05:41.141Z,50.70
2017-07-30T17:08:09.216Z,50.60
2017-07-30T17:10:37.267Z,51.50
2017-07-30T17:13:05.343Z,51.20
2017-07-30T17:15:33.410Z,51.70
2017-07-30T17:18:01.520Z,51.70
2017-07-30T17:20:29.570Z,51.80
2017-07-30T17:22:57.632Z,52.00
2017-07-30T17:25:25.691Z,52.60
2017-07-30T17:27:53.743Z,52.40
2017-07-30T17:30:21.824Z,52.00
2017-07-30T17:32:49.892Z,52.40
2017-07-30T17:35:17.979Z,52.90
2017-07-30T17:37:47.235Z,52.90
2017-07-30T17:40:15.260Z,52.90
2017-07-30T17:42:43.355Z,52.60
2017-07-30T17:45:11.429Z,53.00
2017-07-30T17:47:39.494Z,53.50
2017-07-30T17:50:07.543Z,53.80
2017-07-30T17:52:35.648Z,53.50
2017-07-30T17:55:03.711Z,53.50
2017-07-30T17:57:32.579Z,53.70
2017-07-30T18:00:00.662Z,53.80
2017-07-30T18:02:31.314Z,53.70
2017-07-30T18:05:00.390Z,54.00
2017-07-30T18:07:28.467Z,54.00
2017-07-30T18:09:56.522Z,54.20
2017-07-30T18:12:24.595Z,54.20
2017-07-30T18:14:52.674Z,54.20
2017-07-30T18:17:20.740Z,54.10
2017-07-30T18:19:48.845Z,54.40
2017-07-30T18:22:19.307Z,54.10
2017-07-30T18:24:47.633Z,54.20
2017-07-30T18:27:16.088Z,54.80
2017-07-30T18:29:45.571Z,54.20
2017-07-30T18:32:13.618Z,54.20
2017-07-30T18:34:42.480Z,54.90
2017-07-30T18:37:10.546Z,54.90
2017-07-30T18:39:38.642Z,55.10
2017-07-30T18:42:07.463Z,55.30
2017-07-30T18:44:35.548Z,55.20
2017-07-30T18:47:03.614Z,55.40
2017-07-30T18:49:31.674Z,55.30
2017-07-30T18:51:59.743Z,55.60
2017-07-30T18:54:27.799Z,55.30
2017-07-30T18:56:56.735Z,55.60
2017-07-30T18:59:24.805Z,55.40
2017-07-30T19:01:52.878Z,55.70
2017-07-30T19:04:20.943Z,55.90
2017-07-30T19:06:49.015Z,55.90
2017-07-30T19:09:17.853Z,55.90
2017-07-30T19:11:45.923Z,55.90
2017-07-30T19:14:13.984Z,56.00
2017-07-30T19:16:42.066Z,55.90
2017-07-30T19:19:10.113Z,56.20
2017-07-30T19:21:39.924Z,56.30
2017-07-30T19:24:07.985Z,56.40
2017-07-30T19:26:36.059Z,56.50
2017-07-30T19:29:10.909Z,56.50
2017-07-30T19:31:39.003Z,56.70
2017-07-30T19:34:07.078Z,56.70
2017-07-30T19:36:35.142Z,56.60
2017-07-30T19:39:03.220Z,56.80
2017-07-30T19:41:31.291Z,57.00
2017-07-30T19:43:59.399Z,57.10
2017-07-30T19:46:28.272Z,57.50
2017-07-30T19:48:57.116Z,57.70
2017-07-30T19:51:25.175Z,57.70
2017-07-30T19:53:53.239Z,57.70
2017-07-30T19:56:21.299Z,58.10
2017-07-30T19:58:49.372Z,58.40
2017-07-30T20:01:17.463Z,58.60
2017-07-30T20:03:47.394Z,59.00
2017-07-30T20:06:15.470Z,59.20
2017-07-30T20:08:43.507Z,59.10
2017-07-30T20:11:11.577Z,59.80
2017-07-30T20:13:39.656Z,60.20
2017-07-30T20:16:07.758Z,60.60
2017-07-30T20:18:35.819Z,59.90
2017-07-30T20:21:03.907Z,59.70
2017-07-30T20:23:32.746Z,60.00
2017-07-30T20:26:00.826Z,59.90
2017-07-30T20:28:28.912Z,60.00
2017-07-30T20:30:56.966Z,60.00
2017-07-30T20:33:25.055Z,60.50
2017-07-30T20:35:53.118Z,61.40
2017-07-30T20:38:21.200Z,61.60
2017-07-30T20:40:49.246Z,61.40
2017-07-30T20:43:17.321Z,61.10
2017-07-30T20:45:45.408Z,61.20
2017-07-30T20:48:13.461Z,61.40
2017-07-30T20:50:41.530Z,61.60
2017-07-30T20:53:09.620Z,61.60
2017-07-30T20:55:37.691Z,61.60
2017-07-30T20:58:05.777Z,62.10
2017-07-30T21:00:33.843Z,63.10
2017-07-30T21:03:01.923Z,63.30
2017-07-30T21:05:30.014Z,63.20
2017-07-30T21:07:58.064Z,63.30
2017-07-30T21:10:26.129Z,63.30
2017-07-30T21:12:54.202Z,63.30
2017-07-30T21:15:22.439Z,63.60
2017-07-30T21:17:50.503Z,63.70
2017-07-30T21:20:18.591Z,64.20
2017-07-30T21:22:46.655Z,64.60
2017-07-30T21:25:14.727Z,65.10
2017-07-30T21:27:42.803Z,65.40
2017-07-30T21:30:11.815Z,65.40
2017-07-30T21:32:39.978Z,65.20
2017-07-30T21:35:08.030Z,65.00
2017-07-30T21:37:36.103Z,65.10
2017-07-30T21:40:04.172Z,65.30
2017-07-30T21:42:32.261Z,65.10
2017-07-30T21:45:00.330Z,65.20
2017-07-30T21:47:28.404Z,65.70
2017-07-30T21:49:56.460Z,65.60
2017-07-30T21:52:24.559Z,66.10
2017-07-30T21:54:52.620Z,66.40
2017-07-30T21:57:20.705Z,66.50
2017-07-30T21:59:48.779Z,66.10
2017-07-30T22:02:16.822Z,66.30
2017-07-30T22:04:44.892Z,66.20
2017-07-30T22:07:12.943Z,66.30
2017-07-30T22:09:41.777Z,66.20
2017-07-30T22:12:09.857Z,66.10
2017-07-30T22:14:37.907Z,66.60
2017-07-30T22:17:05.964Z,66.70
2017-07-30T22:19:34.010Z,66.80
2017-07-30T22:22:02.846Z,66.90
2017-07-30T22:24:30.920Z,66.80
2017-07-30T22:26:58.965Z,67.00
2017-07-30T22:29:27.032Z,67.20
2017-07-30T22:31:55.105Z,67.40
2017-07-30T22:34:23.150Z,67.70
2017-07-30T22:36:51.990Z,67.60
2017-07-30T22:39:20.058Z,67.50
2017-07-30T22:41:48.121Z,67.60
2017-07-30T22:44:16.179Z,67.30
2017-07-30T22:46:44.228Z,66.90
2017-07-30T22:49:13.066Z,67.10
2017-07-30T22:51:41.146Z,66.90
2017-07-30T22:54:09.204Z,67.10
2017-07-30T22:56:37.270Z,67.10
2017-07-30T22:59:05.339Z,67.00
2017-07-30T23:01:33.416Z,67.20
2017-07-30T23:04:01.503Z,67.80
2017-07-30T23:06:29.562Z,67.70
2017-07-30T23:08:57.642Z,67.60
2017-07-30T23:11:25.741Z,68.10
2017-07-30T23:13:53.798Z,68.50
2017-07-30T23:16:21.868Z,68.50
2017-07-30T23:18:49.944Z,68.30
2017-07-30T23:21:18.031Z,68.50
2017-07-30T23:23:46.108Z,68.40
2017-07-30T23:26:14.142Z,68.70
2017-07-30T23:28:42.216Z,68.50
2017-07-30T23:31:10.286Z,68.40
2017-07-30T23:33:38.359Z,68.10
2017-07-30T23:36:06.438Z,68.50
2017-07-30T23:38:34.503Z,68.60
2017-07-30T23:41:02.563Z,68.20
2017-07-30T23:43:30.625Z,68.00
2017-07-30T23:45:58.686Z,68.20
2017-07-30T23:48:26.758Z,68.90
2017-07-30T23:50:55.006Z,69.00
2017-07-30T23:53:23.868Z,70.60
2017-07-30T23:55:51.918Z,70.50
2017-07-30T23:58:19.986Z,72.80
